• Join FlightAware (Why Join?)
  • Login
  • US Flag 
03:22PM EDT


 

Airport Tracker/Info


-or-


 

Live Flight TrackerFlight Track Log ✈ N9226R ✈ 05-May-2012 ✈ KOMN - KVRB

Flight Track Log - Related Links

Times and Time Zones

All times are in EDT time to prevent confusion due to time zone crossing. See the N9226R flight status page for this flight to view local times or setup timezone preferences in your user account.

Time Position Orientation Groundspeed Altitude Reporting Facility
EDT Latitude Longitude Course Direction KTS MPH feet Rate Location/Type
11:25AM 29.4611 -81.1300 163° South 113 130 5,500  Level Jacksonville Center
11:26AM 29.4294 -81.1186 162° South 115 132 5,500  Level Jacksonville Center
11:27AM 29.3981 -81.1072 154° Southeast 114 131 5,500  Level Jacksonville Center
11:28AM 29.3728 -81.0933 161° South 115 132 5,500  Level Jacksonville Center
11:29AM 29.3392 -81.0797 146° Southeast 113 130 5,500  Level Jacksonville Center
11:30AM 29.3119 -81.0589 161° South 113 130 5,500  Level Jacksonville Center
11:31AM 29.2825 -81.0475 165° South 110 127 5,600  Climbing Jacksonville Center
11:32AM 29.2531 -81.0383 170° South 111 128 5,500 -60 Descending Jacksonville Center
11:33AM 29.2217 -81.0319 160° South 114 131 5,500  Level Jacksonville Center
11:34AM 29.1944 -81.0206 152° Southeast 114 131 5,500  Level Jacksonville Center
11:36AM 29.1333 -80.9833 139° Southeast 114 131 5,500  Level Orlando TRACON
11:37AM 29.1167 -80.9667 156° South 113 130 5,500  Level Orlando TRACON
11:38AM 29.0833 -80.9500 180° South 115 132 5,500  Level Orlando TRACON
11:39AM 29.0500 -80.9500 156° South 111 128 5,500  Level Orlando TRACON
11:40AM 29.0167 -80.9333 156° South 112 129 5,500 -60 Level Orlando TRACON
11:41AM 28.9833 -80.9167 180° South 115 132 5,400  Descending Orlando TRACON
11:42AM 28.9500 -80.9167 139° Southeast 110 127 5,500  Climbing Orlando TRACON
11:43AM 28.9333 -80.9000 180° South 111 128 5,500  Level Orlando TRACON
11:44AM 28.9000 -80.9000 180° South 108 124 5,500  Level Orlando TRACON
11:45AM 28.8667 -80.9000 156° South 110 127 5,500  Level Orlando TRACON
11:46AM 28.8333 -80.8833 156° South 110 127 5,600  Climbing Orlando TRACON
11:47AM 28.8000 -80.8667 180° South 112 129 5,600 -60 Level Orlando TRACON
11:48AM 28.7833 -80.8667 156° South 113 130 5,500 -60 Descending Orlando TRACON
11:49AM 28.7500 -80.8500 180° South 110 127 5,500  Level Orlando TRACON
11:50AM 28.7167 -80.8500 156° South 110 127 5,500  Level Orlando TRACON
11:51AM 28.6833 -80.8333 139° Southeast 111 128 5,500  Level Orlando TRACON
11:52AM 28.6667 -80.8167 180° South 112 129 5,500  Level Orlando TRACON
11:53AM 28.6333 -80.8167 156° South 112 129 5,500  Level Orlando TRACON
11:54AM 28.6000 -80.8000 180° South 111 128 5,500 -60 Level Orlando TRACON
11:55AM 28.5667 -80.8000 180° South 110 127 5,400 -60 Descending Orlando TRACON
11:56AM 28.5500 -80.8000 156° South 111 128 5,400  Level Orlando TRACON
11:57AM 28.5167 -80.7833 180° South 107 123 5,500  Climbing Orlando TRACON
11:58AM 28.4833 -80.7833 156° South 115 132 5,400  Descending Orlando TRACON
11:59AM 28.4500 -80.7667 156° South 113 130 5,500  Climbing Orlando TRACON
12:00PM 28.4167 -80.7500 180° South 109 125 5,500  Level Orlando TRACON
12:01PM 28.4000 -80.7500 156° South 110 127 5,600  Climbing Orlando TRACON
12:02PM 28.3667 -80.7333 180° South 112 129 5,600 -60 Level Orlando TRACON
12:03PM 28.3333 -80.7333 156° South 115 132 5,500 -60 Descending Orlando TRACON
12:04PM 28.3000 -80.7167 145° Southeast 116 133 5,500 -60 Level Orlando TRACON
12:06PM 28.2600 -80.6844 160° South 116 133 5,400 -60 Descending Miami Center
12:07PM 28.2292 -80.6717 160° South 116 133 5,400  Level Miami Center
12:08PM 28.1983 -80.6589 155° Southeast 116 133 5,500  Climbing Miami Center
12:09PM 28.1694 -80.6439 156° South 111 128 5,500  Level Miami Center
12:10PM 28.1386 -80.6286 161° South 111 128 5,600  Climbing Miami Center
12:11PM 28.1117 -80.6183 155° Southeast 111 128 5,500  Descending Miami Center
12:12PM 28.0828 -80.6033 156° South 111 128 5,600 -60 Climbing Miami Center
12:13PM 28.0519 -80.5881 157° South 111 128 5,400 -120 Descending Miami Center
12:14PM 28.0208 -80.5731 160° South 116 133 5,400  Level Miami Center
12:15PM 27.9900 -80.5603 152° Southeast 116 133 5,400  Level Miami Center
12:16PM 27.9653 -80.5453 152° Southeast 116 133 5,400  Level Miami Center
12:17PM 27.9367 -80.5278 164° South 110 127 5,500 60 Climbing Miami Center
12:18PM 27.9056 -80.5175 152° Southeast 115 132 5,600 60 Climbing Miami Center
12:19PM 27.8767 -80.5000 156° South 115 132 5,700  Climbing Miami Center
12:20PM 27.8519 -80.4875 152° Southeast 115 132 5,600 -120 Descending Miami Center
12:21PM 27.8231 -80.4703 136° Southeast 115 132 5,500 -120 Descending Miami Center
12:22PM 27.7967 -80.4411 136° Southeast 115 132 5,400 -120 Descending Miami Center